sensor_id;sensor_type;location;lat;lon;timestamp;temperature;humidity
74364;DHT22;62797;49.740;10.154;2022-08-30T00:00:16;16.70;36.50
74364;DHT22;62797;49.740;10.154;2022-08-30T00:03:00;16.60;36.20
74364;DHT22;62797;49.740;10.154;2022-08-30T00:05:27;16.50;37.70
74364;DHT22;62797;49.740;10.154;2022-08-30T00:07:53;16.50;38.40
74364;DHT22;62797;49.740;10.154;2022-08-30T00:10:18;16.50;37.70
74364;DHT22;62797;49.740;10.154;2022-08-30T00:12:44;16.50;39.20
74364;DHT22;62797;49.740;10.154;2022-08-30T00:15:10;16.40;39.30
74364;DHT22;62797;49.740;10.154;2022-08-30T00:17:36;16.40;39.80
74364;DHT22;62797;49.740;10.154;2022-08-30T00:20:07;16.40;39.30
74364;DHT22;62797;49.740;10.154;2022-08-30T00:22:33;16.40;39.30
74364;DHT22;62797;49.740;10.154;2022-08-30T00:24:58;16.40;38.50
74364;DHT22;62797;49.740;10.154;2022-08-30T00:27:28;16.40;39.20
74364;DHT22;62797;49.740;10.154;2022-08-30T00:29:54;16.40;38.80
74364;DHT22;62797;49.740;10.154;2022-08-30T00:32:19;16.40;38.70
74364;DHT22;62797;49.740;10.154;2022-08-30T00:34:46;16.40;38.40
74364;DHT22;62797;49.740;10.154;2022-08-30T00:37:11;16.40;40.30
74364;DHT22;62797;49.740;10.154;2022-08-30T00:39:37;16.30;39.30
74364;DHT22;62797;49.740;10.154;2022-08-30T00:42:02;16.30;39.30
74364;DHT22;62797;49.740;10.154;2022-08-30T00:44:28;16.30;38.80
74364;DHT22;62797;49.740;10.154;2022-08-30T00:46:54;16.30;39.20
74364;DHT22;62797;49.740;10.154;2022-08-30T00:49:19;16.20;39.40
74364;DHT22;62797;49.740;10.154;2022-08-30T00:51:44;16.20;39.80
74364;DHT22;62797;49.740;10.154;2022-08-30T00:54:10;16.20;40.90
74364;DHT22;62797;49.740;10.154;2022-08-30T00:56:36;16.10;41.20
74364;DHT22;62797;49.740;10.154;2022-08-30T00:59:03;16.20;41.30
74364;DHT22;62797;49.740;10.154;2022-08-30T01:01:28;16.20;40.40
74364;DHT22;62797;49.740;10.154;2022-08-30T01:03:56;16.20;39.00
74364;DHT22;62797;49.740;10.154;2022-08-30T01:06:21;16.10;39.60
74364;DHT22;62797;49.740;10.154;2022-08-30T01:08:47;16.00;39.50
74364;DHT22;62797;49.740;10.154;2022-08-30T01:11:14;15.90;39.30
74364;DHT22;62797;49.740;10.154;2022-08-30T01:13:40;15.90;39.10
74364;DHT22;62797;49.740;10.154;2022-08-30T01:16:06;15.90;39.30
74364;DHT22;62797;49.740;10.154;2022-08-30T01:18:32;15.90;39.70
74364;DHT22;62797;49.740;10.154;2022-08-30T01:23:36;15.80;41.00
74364;DHT22;62797;49.740;10.154;2022-08-30T01:26:03;15.70;40.30
74364;DHT22;62797;49.740;10.154;2022-08-30T01:28:30;15.70;40.60
74364;DHT22;62797;49.740;10.154;2022-08-30T01:30:56;15.60;41.50
74364;DHT22;62797;49.740;10.154;2022-08-30T01:33:22;15.60;41.00
74364;DHT22;62797;49.740;10.154;2022-08-30T01:35:58;15.60;41.00
74364;DHT22;62797;49.740;10.154;2022-08-30T01:38:25;15.60;40.50
74364;DHT22;62797;49.740;10.154;2022-08-30T01:40:55;15.60;41.60
74364;DHT22;62797;49.740;10.154;2022-08-30T01:43:21;15.60;41.30
74364;DHT22;62797;49.740;10.154;2022-08-30T01:45:46;15.50;41.00
74364;DHT22;62797;49.740;10.154;2022-08-30T01:48:13;15.50;42.20
74364;DHT22;62797;49.740;10.154;2022-08-30T01:50:39;15.50;41.40
74364;DHT22;62797;49.740;10.154;2022-08-30T01:53:05;15.50;40.90
74364;DHT22;62797;49.740;10.154;2022-08-30T01:55:30;15.50;41.50
74364;DHT22;62797;49.740;10.154;2022-08-30T01:57:56;15.40;41.00
74364;DHT22;62797;49.740;10.154;2022-08-30T02:00:22;15.40;41.40
74364;DHT22;62797;49.740;10.154;2022-08-30T02:02:47;15.30;41.20
74364;DHT22;62797;49.740;10.154;2022-08-30T02:05:13;15.30;42.70
74364;DHT22;62797;49.740;10.154;2022-08-30T02:07:38;15.20;44.70
74364;DHT22;62797;49.740;10.154;2022-08-30T02:10:04;15.20;44.80
74364;DHT22;62797;49.740;10.154;2022-08-30T02:12:30;15.20;42.80
74364;DHT22;62797;49.740;10.154;2022-08-30T02:14:55;15.20;43.70
74364;DHT22;62797;49.740;10.154;2022-08-30T02:17:21;15.20;43.10
74364;DHT22;62797;49.740;10.154;2022-08-30T02:19:47;15.20;42.50
74364;DHT22;62797;49.740;10.154;2022-08-30T02:22:12;15.10;42.20
74364;DHT22;62797;49.740;10.154;2022-08-30T02:24:38;15.10;43.00
74364;DHT22;62797;49.740;10.154;2022-08-30T02:27:03;15.10;44.30
74364;DHT22;62797;49.740;10.154;2022-08-30T02:29:29;15.10;43.50
74364;DHT22;62797;49.740;10.154;2022-08-30T02:31:55;15.00;44.90
74364;DHT22;62797;49.740;10.154;2022-08-30T02:34:21;15.00;44.10
74364;DHT22;62797;49.740;10.154;2022-08-30T02:36:46;15.00;44.20
74364;DHT22;62797;49.740;10.154;2022-08-30T02:39:12;14.90;44.10
74364;DHT22;62797;49.740;10.154;2022-08-30T02:41:37;14.90;44.00
74364;DHT22;62797;49.740;10.154;2022-08-30T02:44:04;14.90;44.10
74364;DHT22;62797;49.740;10.154;2022-08-30T02:46:29;14.90;44.20
74364;DHT22;62797;49.740;10.154;2022-08-30T02:48:55;14.90;44.10
74364;DHT22;62797;49.740;10.154;2022-08-30T02:51:20;14.90;44.80
74364;DHT22;62797;49.740;10.154;2022-08-30T02:53:46;14.80;46.00
74364;DHT22;62797;49.740;10.154;2022-08-30T02:56:12;14.80;46.90
74364;DHT22;62797;49.740;10.154;2022-08-30T02:58:38;14.80;45.90
74364;DHT22;62797;49.740;10.154;2022-08-30T03:01:04;14.90;44.90
74364;DHT22;62797;49.740;10.154;2022-08-30T03:03:30;14.80;45.40
74364;DHT22;62797;49.740;10.154;2022-08-30T03:05:55;14.80;45.10
74364;DHT22;62797;49.740;10.154;2022-08-30T03:08:21;14.80;44.90
74364;DHT22;62797;49.740;10.154;2022-08-30T03:10:47;14.80;45.00
74364;DHT22;62797;49.740;10.154;2022-08-30T03:13:12;14.70;46.30
74364;DHT22;62797;49.740;10.154;2022-08-30T03:15:37;14.70;47.30
74364;DHT22;62797;49.740;10.154;2022-08-30T03:18:04;14.80;46.80
74364;DHT22;62797;49.740;10.154;2022-08-30T03:20:29;14.80;46.70
74364;DHT22;62797;49.740;10.154;2022-08-30T03:22:55;14.80;47.30
74364;DHT22;62797;49.740;10.154;2022-08-30T03:25:21;14.70;47.00
74364;DHT22;62797;49.740;10.154;2022-08-30T03:27:52;14.70;46.10
74364;DHT22;62797;49.740;10.154;2022-08-30T03:30:18;14.70;48.10
74364;DHT22;62797;49.740;10.154;2022-08-30T03:32:44;14.70;46.50
74364;DHT22;62797;49.740;10.154;2022-08-30T03:35:10;14.60;45.80
74364;DHT22;62797;49.740;10.154;2022-08-30T03:37:35;14.60;46.60
74364;DHT22;62797;49.740;10.154;2022-08-30T03:40:02;14.50;47.30
74364;DHT22;62797;49.740;10.154;2022-08-30T03:42:28;14.50;47.00
74364;DHT22;62797;49.740;10.154;2022-08-30T03:44:53;14.50;46.60
74364;DHT22;62797;49.740;10.154;2022-08-30T03:47:19;14.40;46.20
74364;DHT22;62797;49.740;10.154;2022-08-30T03:49:45;14.40;46.30
74364;DHT22;62797;49.740;10.154;2022-08-30T03:52:10;14.40;46.90
74364;DHT22;62797;49.740;10.154;2022-08-30T03:54:36;14.40;47.70
74364;DHT22;62797;49.740;10.154;2022-08-30T03:57:02;14.40;47.40
74364;DHT22;62797;49.740;10.154;2022-08-30T03:59:28;14.30;46.90
74364;DHT22;62797;49.740;10.154;2022-08-30T04:01:53;14.30;47.70
74364;DHT22;62797;49.740;10.154;2022-08-30T04:04:19;14.30;47.60
74364;DHT22;62797;49.740;10.154;2022-08-30T04:06:44;14.30;48.10
74364;DHT22;62797;49.740;10.154;2022-08-30T04:09:10;14.30;47.40
74364;DHT22;62797;49.740;10.154;2022-08-30T04:11:35;14.20;47.80
74364;DHT22;62797;49.740;10.154;2022-08-30T04:14:01;14.30;48.00
74364;DHT22;62797;49.740;10.154;2022-08-30T04:16:26;14.20;47.70
74364;DHT22;62797;49.740;10.154;2022-08-30T04:18:52;14.20;48.60
74364;DHT22;62797;49.740;10.154;2022-08-30T04:21:17;14.20;48.80
74364;DHT22;62797;49.740;10.154;2022-08-30T04:23:43;14.20;49.00
74364;DHT22;62797;49.740;10.154;2022-08-30T04:26:09;14.20;50.10
74364;DHT22;62797;49.740;10.154;2022-08-30T04:28:35;14.20;50.40
74364;DHT22;62797;49.740;10.154;2022-08-30T04:31:06;14.20;49.80
74364;DHT22;62797;49.740;10.154;2022-08-30T04:33:33;14.30;48.70
74364;DHT22;62797;49.740;10.154;2022-08-30T04:36:00;14.20;49.40
74364;DHT22;62797;49.740;10.154;2022-08-30T04:38:29;14.30;48.60
74364;DHT22;62797;49.740;10.154;2022-08-30T04:40:54;14.20;49.30
74364;DHT22;62797;49.740;10.154;2022-08-30T04:43:20;14.20;48.90
74364;DHT22;62797;49.740;10.154;2022-08-30T04:45:45;14.20;49.10
74364;DHT22;62797;49.740;10.154;2022-08-30T04:48:10;14.20;48.50
74364;DHT22;62797;49.740;10.154;2022-08-30T04:50:36;14.20;48.00
74364;DHT22;62797;49.740;10.154;2022-08-30T04:53:01;14.20;48.20
74364;DHT22;62797;49.740;10.154;2022-08-30T04:55:27;14.10;49.50
74364;DHT22;62797;49.740;10.154;2022-08-30T04:57:52;14.10;49.60
74364;DHT22;62797;49.740;10.154;2022-08-30T05:00:18;14.10;48.30
74364;DHT22;62797;49.740;10.154;2022-08-30T05:02:47;14.10;47.60
74364;DHT22;62797;49.740;10.154;2022-08-30T05:05:13;14.10;47.90
74364;DHT22;62797;49.740;10.154;2022-08-30T05:07:57;14.00;47.90
74364;DHT22;62797;49.740;10.154;2022-08-30T05:10:23;14.10;47.80
74364;DHT22;62797;49.740;10.154;2022-08-30T05:12:49;14.10;48.20
74364;DHT22;62797;49.740;10.154;2022-08-30T05:15:14;14.10;48.50
74364;DHT22;62797;49.740;10.154;2022-08-30T05:17:40;14.10;49.00
74364;DHT22;62797;49.740;10.154;2022-08-30T05:20:06;14.10;50.10
74364;DHT22;62797;49.740;10.154;2022-08-30T05:22:34;14.10;50.90
74364;DHT22;62797;49.740;10.154;2022-08-30T05:24:59;14.20;49.20
74364;DHT22;62797;49.740;10.154;2022-08-30T05:27:25;14.20;48.80
74364;DHT22;62797;49.740;10.154;2022-08-30T05:29:50;14.20;48.50
74364;DHT22;62797;49.740;10.154;2022-08-30T05:32:16;14.20;48.50
74364;DHT22;62797;49.740;10.154;2022-08-30T05:34:43;14.20;49.10
74364;DHT22;62797;49.740;10.154;2022-08-30T05:37:08;14.20;49.10
74364;DHT22;62797;49.740;10.154;2022-08-30T05:39:34;14.20;49.40
74364;DHT22;62797;49.740;10.154;2022-08-30T05:41:59;14.30;49.30
74364;DHT22;62797;49.740;10.154;2022-08-30T05:44:25;14.30;49.50
74364;DHT22;62797;49.740;10.154;2022-08-30T05:46:50;14.40;49.60
74364;DHT22;62797;49.740;10.154;2022-08-30T05:49:16;14.40;49.60
74364;DHT22;62797;49.740;10.154;2022-08-30T05:51:41;14.40;50.00
74364;DHT22;62797;49.740;10.154;2022-08-30T05:54:07;14.50;49.40
74364;DHT22;62797;49.740;10.154;2022-08-30T05:56:33;14.50;48.60
74364;DHT22;62797;49.740;10.154;2022-08-30T05:58:59;14.60;49.30
74364;DHT22;62797;49.740;10.154;2022-08-30T06:01:29;14.60;49.30
74364;DHT22;62797;49.740;10.154;2022-08-30T06:03:56;14.70;50.10
74364;DHT22;62797;49.740;10.154;2022-08-30T06:06:22;14.80;50.10
74364;DHT22;62797;49.740;10.154;2022-08-30T06:08:48;14.90;50.30
74364;DHT22;62797;49.740;10.154;2022-08-30T06:11:15;15.00;49.10
74364;DHT22;62797;49.740;10.154;2022-08-30T06:13:41;15.10;48.10
74364;DHT22;62797;49.740;10.154;2022-08-30T06:16:07;15.20;47.50
74364;DHT22;62797;49.740;10.154;2022-08-30T06:18:32;15.30;47.70
74364;DHT22;62797;49.740;10.154;2022-08-30T06:20:58;15.40;48.00
74364;DHT22;62797;49.740;10.154;2022-08-30T06:23:23;15.50;47.70
74364;DHT22;62797;49.740;10.154;2022-08-30T06:25:49;15.60;46.70
74364;DHT22;62797;49.740;10.154;2022-08-30T06:28:14;15.60;44.90
74364;DHT22;62797;49.740;10.154;2022-08-30T06:30:40;15.70;45.60
74364;DHT22;62797;49.740;10.154;2022-08-30T06:33:07;15.80;44.40
74364;DHT22;62797;49.740;10.154;2022-08-30T06:35:32;15.80;43.40
74364;DHT22;62797;49.740;10.154;2022-08-30T06:37:58;16.00;43.20
74364;DHT22;62797;49.740;10.154;2022-08-30T06:40:23;16.10;43.40
74364;DHT22;62797;49.740;10.154;2022-08-30T06:42:49;16.10;41.80
74364;DHT22;62797;49.740;10.154;2022-08-30T06:45:15;16.20;41.60
74364;DHT22;62797;49.740;10.154;2022-08-30T06:47:41;16.30;42.30
74364;DHT22;62797;49.740;10.154;2022-08-30T06:50:07;16.40;40.20
74364;DHT22;62797;49.740;10.154;2022-08-30T06:52:32;16.50;39.90
74364;DHT22;62797;49.740;10.154;2022-08-30T06:54:58;16.60;39.60
74364;DHT22;62797;49.740;10.154;2022-08-30T06:57:24;16.60;39.80
74364;DHT22;62797;49.740;10.154;2022-08-30T06:59:54;16.70;38.60
74364;DHT22;62797;49.740;10.154;2022-08-30T07:02:19;16.80;39.00
74364;DHT22;62797;49.740;10.154;2022-08-30T07:04:45;16.90;38.90
74364;DHT22;62797;49.740;10.154;2022-08-30T07:07:10;16.90;38.70
74364;DHT22;62797;49.740;10.154;2022-08-30T07:09:36;17.10;39.10
74364;DHT22;62797;49.740;10.154;2022-08-30T07:12:07;17.10;39.20
74364;DHT22;62797;49.740;10.154;2022-08-30T07:14:33;17.20;38.60
74364;DHT22;62797;49.740;10.154;2022-08-30T07:16:58;17.30;38.60
74364;DHT22;62797;49.740;10.154;2022-08-30T07:19:24;17.30;38.10
74364;DHT22;62797;49.740;10.154;2022-08-30T07:21:49;17.40;37.50
74364;DHT22;62797;49.740;10.154;2022-08-30T07:24:15;17.60;37.20
74364;DHT22;62797;49.740;10.154;2022-08-30T07:26:42;17.60;37.40
74364;DHT22;62797;49.740;10.154;2022-08-30T07:29:08;17.70;37.30
74364;DHT22;62797;49.740;10.154;2022-08-30T07:31:34;17.80;36.90
74364;DHT22;62797;49.740;10.154;2022-08-30T07:34:04;18.00;36.00
74364;DHT22;62797;49.740;10.154;2022-08-30T07:36:30;18.10;36.20
74364;DHT22;62797;49.740;10.154;2022-08-30T07:38:56;18.10;36.50
74364;DHT22;62797;49.740;10.154;2022-08-30T07:41:26;18.20;36.30
74364;DHT22;62797;49.740;10.154;2022-08-30T07:43:52;18.30;35.60
74364;DHT22;62797;49.740;10.154;2022-08-30T07:46:18;18.30;35.60
74364;DHT22;62797;49.740;10.154;2022-08-30T07:48:43;18.40;35.50
74364;DHT22;62797;49.740;10.154;2022-08-30T07:51:13;18.50;35.90
74364;DHT22;62797;49.740;10.154;2022-08-30T07:53:39;18.60;36.00
74364;DHT22;62797;49.740;10.154;2022-08-30T07:56:04;18.70;34.70
74364;DHT22;62797;49.740;10.154;2022-08-30T07:58:30;18.70;34.70
74364;DHT22;62797;49.740;10.154;2022-08-30T08:00:55;18.70;34.60
74364;DHT22;62797;49.740;10.154;2022-08-30T08:03:24;18.80;34.40
74364;DHT22;62797;49.740;10.154;2022-08-30T08:05:49;18.90;34.80
74364;DHT22;62797;49.740;10.154;2022-08-30T08:08:17;19.00;34.60
74364;DHT22;62797;49.740;10.154;2022-08-30T08:10:43;19.10;34.00
74364;DHT22;62797;49.740;10.154;2022-08-30T08:13:09;19.20;34.00
74364;DHT22;62797;49.740;10.154;2022-08-30T08:15:34;19.30;34.30
74364;DHT22;62797;49.740;10.154;2022-08-30T08:18:00;19.50;33.70
74364;DHT22;62797;49.740;10.154;2022-08-30T08:20:25;19.50;33.40
74364;DHT22;62797;49.740;10.154;2022-08-30T08:22:52;19.60;32.90
74364;DHT22;62797;49.740;10.154;2022-08-30T08:25:17;19.70;32.30
74364;DHT22;62797;49.740;10.154;2022-08-30T08:27:45;19.80;32.20
74364;DHT22;62797;49.740;10.154;2022-08-30T08:30:10;19.90;32.50
74364;DHT22;62797;49.740;10.154;2022-08-30T08:32:36;20.00;31.70
74364;DHT22;62797;49.740;10.154;2022-08-30T08:35:01;20.20;31.70
74364;DHT22;62797;49.740;10.154;2022-08-30T08:37:27;20.30;31.50
74364;DHT22;62797;49.740;10.154;2022-08-30T08:39:52;20.40;31.20
74364;DHT22;62797;49.740;10.154;2022-08-30T08:42:29;20.50;31.80
74364;DHT22;62797;49.740;10.154;2022-08-30T08:45:05;20.60;30.90
74364;DHT22;62797;49.740;10.154;2022-08-30T08:49:58;20.90;31.00
74364;DHT22;62797;49.740;10.154;2022-08-30T08:52:30;21.00;30.40
74364;DHT22;62797;49.740;10.154;2022-08-30T08:55:17;21.20;28.80
74364;DHT22;62797;49.740;10.154;2022-08-30T08:57:44;21.30;29.10
74364;DHT22;62797;49.740;10.154;2022-08-30T09:00:11;21.50;28.50
74364;DHT22;62797;49.740;10.154;2022-08-30T09:02:44;21.60;29.00
74364;DHT22;62797;49.740;10.154;2022-08-30T09:05:30;21.60;28.20
74364;DHT22;62797;49.740;10.154;2022-08-30T09:07:59;21.70;28.30
74364;DHT22;62797;49.740;10.154;2022-08-30T09:10:25;21.80;28.00
74364;DHT22;62797;49.740;10.154;2022-08-30T09:12:51;21.80;28.10
74364;DHT22;62797;49.740;10.154;2022-08-30T09:15:19;21.90;27.60
74364;DHT22;62797;49.740;10.154;2022-08-30T09:17:49;22.00;27.50
74364;DHT22;62797;49.740;10.154;2022-08-30T09:20:22;22.00;27.50
74364;DHT22;62797;49.740;10.154;2022-08-30T09:22:48;22.20;26.80
74364;DHT22;62797;49.740;10.154;2022-08-30T09:25:29;22.30;27.20
74364;DHT22;62797;49.740;10.154;2022-08-30T09:28:20;22.50;26.20
74364;DHT22;62797;49.740;10.154;2022-08-30T09:30:56;22.60;26.00
74364;DHT22;62797;49.740;10.154;2022-08-30T09:33:22;22.60;26.00
74364;DHT22;62797;49.740;10.154;2022-08-30T09:35:49;22.70;26.10
74364;DHT22;62797;49.740;10.154;2022-08-30T09:38:17;22.80;26.20
74364;DHT22;62797;49.740;10.154;2022-08-30T09:40:44;22.90;25.40
74364;DHT22;62797;49.740;10.154;2022-08-30T09:45:43;23.00;24.90
74364;DHT22;62797;49.740;10.154;2022-08-30T09:50:55;23.20;25.00
74364;DHT22;62797;49.740;10.154;2022-08-30T09:53:24;23.40;24.90
74364;DHT22;62797;49.740;10.154;2022-08-30T09:55:58;23.50;24.10
74364;DHT22;62797;49.740;10.154;2022-08-30T09:58:40;23.70;24.00
74364;DHT22;62797;49.740;10.154;2022-08-30T10:01:13;23.80;22.90
74364;DHT22;62797;49.740;10.154;2022-08-30T10:03:49;24.00;23.20
74364;DHT22;62797;49.740;10.154;2022-08-30T10:11:36;24.30;21.90
74364;DHT22;62797;49.740;10.154;2022-08-30T10:14:20;24.40;21.50
74364;DHT22;62797;49.740;10.154;2022-08-30T10:21:43;24.80;20.60
74364;DHT22;62797;49.740;10.154;2022-08-30T10:24:12;24.90;20.50
74364;DHT22;62797;49.740;10.154;2022-08-30T10:26:42;24.90;20.50
74364;DHT22;62797;49.740;10.154;2022-08-30T10:29:13;25.00;19.60
74364;DHT22;62797;49.740;10.154;2022-08-30T10:31:45;25.10;19.80
74364;DHT22;62797;49.740;10.154;2022-08-30T10:34:46;25.40;19.10
74364;DHT22;62797;49.740;10.154;2022-08-30T10:37:07;25.50;18.30
74364;DHT22;62797;49.740;10.154;2022-08-30T10:39:36;25.70;18.20
74364;DHT22;62797;49.740;10.154;2022-08-30T10:42:25;25.80;18.40
74364;DHT22;62797;49.740;10.154;2022-08-30T10:44:52;26.10;18.00
74364;DHT22;62797;49.740;10.154;2022-08-30T10:47:24;26.40;18.20
74364;DHT22;62797;49.740;10.154;2022-08-30T10:50:28;26.70;17.80
74364;DHT22;62797;49.740;10.154;2022-08-30T10:52:46;27.00;16.70
74364;DHT22;62797;49.740;10.154;2022-08-30T10:55:15;27.20;15.90
74364;DHT22;62797;49.740;10.154;2022-08-30T10:57:42;27.60;14.90
74364;DHT22;62797;49.740;10.154;2022-08-30T11:00:12;27.70;13.80
74364;DHT22;62797;49.740;10.154;2022-08-30T11:07:51;28.20;13.40
74364;DHT22;62797;49.740;10.154;2022-08-30T11:12:58;28.30;11.60
74364;DHT22;62797;49.740;10.154;2022-08-30T11:15:26;28.40;11.40
74364;DHT22;62797;49.740;10.154;2022-08-30T11:17:59;28.50;10.80
74364;DHT22;62797;49.740;10.154;2022-08-30T11:33:50;29.40;11.80
74364;DHT22;62797;49.740;10.154;2022-08-30T11:38:58;29.50;9.00
74364;DHT22;62797;49.740;10.154;2022-08-30T11:41:30;29.40;9.10
74364;DHT22;62797;49.740;10.154;2022-08-30T11:44:11;29.30;9.50
74364;DHT22;62797;49.740;10.154;2022-08-30T11:46:38;29.20;10.30
74364;DHT22;62797;49.740;10.154;2022-08-30T12:04:58;29.90;9.10
74364;DHT22;62797;49.740;10.154;2022-08-30T12:10:15;30.10;8.20
74364;DHT22;62797;49.740;10.154;2022-08-30T12:12:45;30.20;8.60
74364;DHT22;62797;49.740;10.154;2022-08-30T12:15:26;30.40;8.60
74364;DHT22;62797;49.740;10.154;2022-08-30T12:17:54;30.20;7.40
74364;DHT22;62797;49.740;10.154;2022-08-30T12:20:40;29.80;8.40
74364;DHT22;62797;49.740;10.154;2022-08-30T12:23:17;29.80;8.90
74364;DHT22;62797;49.740;10.154;2022-08-30T12:25:43;30.10;9.10
74364;DHT22;62797;49.740;10.154;2022-08-30T12:28:10;30.00;7.80
74364;DHT22;62797;49.740;10.154;2022-08-30T12:30:36;29.70;8.30
74364;DHT22;62797;49.740;10.154;2022-08-30T12:33:04;29.60;8.50
74364;DHT22;62797;49.740;10.154;2022-08-30T12:35:30;29.70;8.00
74364;DHT22;62797;49.740;10.154;2022-08-30T12:37:59;29.90;7.70
74364;DHT22;62797;49.740;10.154;2022-08-30T12:40:26;30.10;8.50
74364;DHT22;62797;49.740;10.154;2022-08-30T12:45:19;30.70;8.00
74364;DHT22;62797;49.740;10.154;2022-08-30T12:47:46;30.90;6.80
74364;DHT22;62797;49.740;10.154;2022-08-30T12:50:15;30.90;6.90
74364;DHT22;62797;49.740;10.154;2022-08-30T12:52:43;31.00;8.70
74364;DHT22;62797;49.740;10.154;2022-08-30T12:55:23;30.90;6.50
74364;DHT22;62797;49.740;10.154;2022-08-30T12:57:54;30.80;9.30
74364;DHT22;62797;49.740;10.154;2022-08-30T13:02:52;31.00;6.60
74364;DHT22;62797;49.740;10.154;2022-08-30T13:10:34;31.40;7.10
74364;DHT22;62797;49.740;10.154;2022-08-30T13:13:03;31.70;5.40
74364;DHT22;62797;49.740;10.154;2022-08-30T13:15:31;31.50;6.20
74364;DHT22;62797;49.740;10.154;2022-08-30T13:20:41;31.50;7.60
74364;DHT22;62797;49.740;10.154;2022-08-30T13:23:08;31.50;8.10
74364;DHT22;62797;49.740;10.154;2022-08-30T13:25:34;31.50;5.80
74364;DHT22;62797;49.740;10.154;2022-08-30T13:28:00;31.40;6.50
74364;DHT22;62797;49.740;10.154;2022-08-30T13:30:26;31.00;5.70
74364;DHT22;62797;49.740;10.154;2022-08-30T13:32:52;30.90;7.10
74364;DHT22;62797;49.740;10.154;2022-08-30T13:35:17;31.20;8.50
74364;DHT22;62797;49.740;10.154;2022-08-30T13:37:43;31.50;6.30
74364;DHT22;62797;49.740;10.154;2022-08-30T13:40:09;31.90;5.50
74364;DHT22;62797;49.740;10.154;2022-08-30T13:42:35;31.90;5.00
74364;DHT22;62797;49.740;10.154;2022-08-30T13:45:00;31.80;4.80
74364;DHT22;62797;49.740;10.154;2022-08-30T13:47:26;32.00;5.40
74364;DHT22;62797;49.740;10.154;2022-08-30T13:49:51;32.30;4.50
74364;DHT22;62797;49.740;10.154;2022-08-30T13:52:18;32.50;5.20
74364;DHT22;62797;49.740;10.154;2022-08-30T13:54:49;32.70;4.80
74364;DHT22;62797;49.740;10.154;2022-08-30T13:57:16;32.90;6.20
74364;DHT22;62797;49.740;10.154;2022-08-30T13:59:41;33.20;5.00
74364;DHT22;62797;49.740;10.154;2022-08-30T14:02:07;33.70;5.00
74364;DHT22;62797;49.740;10.154;2022-08-30T14:04:32;34.30;4.30
74364;DHT22;62797;49.740;10.154;2022-08-30T14:06:57;34.50;4.80
74364;DHT22;62797;49.740;10.154;2022-08-30T14:09:23;34.80;3.40
74364;DHT22;62797;49.740;10.154;2022-08-30T14:11:48;35.20;3.20
74364;DHT22;62797;49.740;10.154;2022-08-30T14:14:14;35.30;3.70
74364;DHT22;62797;49.740;10.154;2022-08-30T14:16:40;35.60;2.30
74364;DHT22;62797;49.740;10.154;2022-08-30T14:19:07;35.90;1.40
74364;DHT22;62797;49.740;10.154;2022-08-30T14:21:32;35.80;1.90
74364;DHT22;62797;49.740;10.154;2022-08-30T14:23:58;35.50;2.00
74364;DHT22;62797;49.740;10.154;2022-08-30T14:26:31;35.10;2.30
74364;DHT22;62797;49.740;10.154;2022-08-30T14:28:57;34.80;3.20
74364;DHT22;62797;49.740;10.154;2022-08-30T14:31:23;35.10;2.50
74364;DHT22;62797;49.740;10.154;2022-08-30T14:33:49;35.20;2.30
74364;DHT22;62797;49.740;10.154;2022-08-30T14:36:14;35.70;1.90
74364;DHT22;62797;49.740;10.154;2022-08-30T14:38:40;35.90;1.40
74364;DHT22;62797;49.740;10.154;2022-08-30T14:41:05;36.00;3.00
74364;DHT22;62797;49.740;10.154;2022-08-30T14:43:31;36.10;1.00
74364;DHT22;62797;49.740;10.154;2022-08-30T14:45:57;35.80;1.00
74364;DHT22;62797;49.740;10.154;2022-08-30T14:48:22;35.70;1.40
74364;DHT22;62797;49.740;10.154;2022-08-30T14:50:48;35.30;3.50
74364;DHT22;62797;49.740;10.154;2022-08-30T14:53:13;35.40;4.00
74364;DHT22;62797;49.740;10.154;2022-08-30T14:55:39;35.70;2.50
74364;DHT22;62797;49.740;10.154;2022-08-30T14:58:04;36.30;1.40
74364;DHT22;62797;49.740;10.154;2022-08-30T15:00:31;36.70;1.10
74364;DHT22;62797;49.740;10.154;2022-08-30T15:02:56;36.80;1.00
74364;DHT22;62797;49.740;10.154;2022-08-30T15:05:22;37.10;1.40
74364;DHT22;62797;49.740;10.154;2022-08-30T15:07:47;37.30;1.30
74364;DHT22;62797;49.740;10.154;2022-08-30T15:10:15;37.60;2.10
74364;DHT22;62797;49.740;10.154;2022-08-30T15:12:41;37.80;1.00
74364;DHT22;62797;49.740;10.154;2022-08-30T15:15:06;37.70;1.00
74364;DHT22;62797;49.740;10.154;2022-08-30T15:17:32;37.90;1.70
74364;DHT22;62797;49.740;10.154;2022-08-30T15:19:57;37.90;1.00
74364;DHT22;62797;49.740;10.154;2022-08-30T15:22:23;37.70;1.00
74364;DHT22;62797;49.740;10.154;2022-08-30T15:24:48;37.80;1.00
74364;DHT22;62797;49.740;10.154;2022-08-30T15:27:14;37.80;1.00
74364;DHT22;62797;49.740;10.154;2022-08-30T15:29:39;37.70;1.00
74364;DHT22;62797;49.740;10.154;2022-08-30T15:32:05;37.70;1.00
74364;DHT22;62797;49.740;10.154;2022-08-30T15:34:31;37.60;1.00
74364;DHT22;62797;49.740;10.154;2022-08-30T15:36:56;37.50;1.00
74364;DHT22;62797;49.740;10.154;2022-08-30T15:39:22;37.60;1.00
74364;DHT22;62797;49.740;10.154;2022-08-30T15:41:47;37.60;1.20
74364;DHT22;62797;49.740;10.154;2022-08-30T15:44:13;37.50;1.00
74364;DHT22;62797;49.740;10.154;2022-08-30T15:46:40;37.30;1.40
74364;DHT22;62797;49.740;10.154;2022-08-30T15:49:07;37.30;1.00
74364;DHT22;62797;49.740;10.154;2022-08-30T15:51:33;37.20;1.00
74364;DHT22;62797;49.740;10.154;2022-08-30T15:54:00;37.30;1.00
74364;DHT22;62797;49.740;10.154;2022-08-30T15:56:27;37.30;1.00
74364;DHT22;62797;49.740;10.154;2022-08-30T15:58:54;37.20;1.00
74364;DHT22;62797;49.740;10.154;2022-08-30T16:01:20;36.70;1.20
74364;DHT22;62797;49.740;10.154;2022-08-30T16:03:46;36.80;1.00
74364;DHT22;62797;49.740;10.154;2022-08-30T16:06:21;36.50;2.20
74364;DHT22;62797;49.740;10.154;2022-08-30T16:08:48;36.60;1.00
74364;DHT22;62797;49.740;10.154;2022-08-30T16:11:14;36.40;1.40
74364;DHT22;62797;49.740;10.154;2022-08-30T16:13:40;36.10;1.00
74364;DHT22;62797;49.740;10.154;2022-08-30T16:16:06;36.00;2.20
74364;DHT22;62797;49.740;10.154;2022-08-30T16:18:32;35.70;1.60
74364;DHT22;62797;49.740;10.154;2022-08-30T16:23:34;35.10;2.10
74364;DHT22;62797;49.740;10.154;2022-08-30T16:26:01;34.80;1.90
74364;DHT22;62797;49.740;10.154;2022-08-30T16:28:26;34.50;2.50
74364;DHT22;62797;49.740;10.154;2022-08-30T16:30:52;34.60;2.50
74364;DHT22;62797;49.740;10.154;2022-08-30T16:33:18;34.80;2.70
74364;DHT22;62797;49.740;10.154;2022-08-30T16:35:43;34.80;3.20
74364;DHT22;62797;49.740;10.154;2022-08-30T16:38:09;34.50;2.50